Dabney, Arkansas
Current Conditions -  °F | °C
As of 6:53 PM on Thursday 18 Dec 2014 (Local Time) from KRUE Reporting Station
Overcast Overcast  
Wind Chill: 41°   Ceiling: 800
Heat Index: 41°   Visibility: 8mi
Dew Point: 38°   Wind: 0mph
Humidity: 89%   Direction: NA
Pressure: 30.21"   Gusts: NA
Location:  35.227°N, 92.6879°W
Report Text: KRUE 190053Z AUTO 00000KT 8SM OVC008 05/03 A3021 RMK AO2 SLP228 T00500033
Loading
Personal Weather Stations






























Interactive Weather Map New forecast layout! Learn more

10-Day Weather Forecast

Advertisements
Track Severe Weather on mobile